Time;durP1;ratioP1;P1;durP2;ratioP2;P2;SDS_P1;SDS_P2;PMS_P1;PMS_P2;Temp;Humidity;BMP_temperature;BMP_pressure;BME280_temperature;BME280_humidity;BME280_pressure;Samples;Min_cycle;Max_cycle;Signal;HPM_P1;HPM_P2
2022/01/09 00:00:23;;;;;;;7.28;1.90;;;;;;;;;;5053834;28;20029;-79
2022/01/09 00:02:51;;;;;;;11.75;2.38;;;;;;;;;;5054784;28;20397;-79
2022/01/09 00:05:19;;;;;;;5.47;2.10;;;;;;;;;;5053888;28;20025;-79
2022/01/09 00:07:46;;;;;;;7.35;2.10;;;;;;;;;;5053540;28;20040;-79
2022/01/09 00:10:14;;;;;;;9.25;2.28;;;;;;;;;;5055186;28;20025;-79
2022/01/09 00:12:41;;;;;;;9.98;2.25;;;;;;;;;;5053514;28;20028;-79
2022/01/09 00:15:09;;;;;;;6.85;2.13;;;;;;;;;;5053732;28;20115;-78
2022/01/09 00:17:36;;;;;;;6.80;1.83;;;;;;;;;;5054839;28;20017;-79
2022/01/09 00:20:05;;;;;;;6.80;2.20;;;;;;;;;;5054961;28;20124;-79
2022/01/09 00:22:48;;;;;;;9.82;2.10;;;;;;;;;;5054776;28;20139;-79
2022/01/09 00:25:17;;;;;;;8.40;2.28;;;;;;;;;;5054909;28;20017;-80
2022/01/09 00:27:44;;;;;;;9.15;2.35;;;;;;;;;;5053418;28;20084;-79
2022/01/09 00:30:12;;;;;;;6.30;2.20;;;;;;;;;;5054567;28;20017;-78
2022/01/09 00:32:40;;;;;;;7.57;2.17;;;;;;;;;;5054897;28;20496;-79
2022/01/09 00:35:08;;;;;;;6.10;1.70;;;;;;;;;;5053294;28;20551;-79
2022/01/09 00:37:35;;;;;;;9.43;2.33;;;;;;;;;;5054349;28;20025;-79
2022/01/09 00:40:03;;;;;;;7.97;1.83;;;;;;;;;;5054190;28;20032;-78
2022/01/09 00:42:30;;;;;;;7.03;1.85;;;;;;;;;;5053628;28;20091;-80
2022/01/09 00:44:58;;;;;;;7.60;1.98;;;;;;;;;;5053312;28;20021;-78
2022/01/09 00:47:25;;;;;;;7.10;2.20;;;;;;;;;;5054461;28;20017;-78
2022/01/09 00:49:52;;;;;;;9.20;2.58;;;;;;;;;;5054128;28;20060;-78
2022/01/09 00:52:19;;;;;;;7.32;2.08;;;;;;;;;;5053051;28;20021;-77
2022/01/09 00:54:46;;;;;;;7.30;2.10;;;;;;;;;;5054162;28;20075;-78
2022/01/09 00:57:14;;;;;;;7.60;2.67;;;;;;;;;;5054137;28;20025;-78
2022/01/09 00:59:41;;;;;;;6.03;1.95;;;;;;;;;;5053227;28;20500;-79
2022/01/09 01:02:08;;;;;;;7.75;2.00;;;;;;;;;;5036522;28;20029;-79
2022/01/09 01:04:38;;;;;;;8.05;2.05;;;;;;;;;;5053759;28;20044;-78
2022/01/09 01:07:05;;;;;;;7.97;2.37;;;;;;;;;;5052881;28;20036;-78
2022/01/09 01:09:32;;;;;;;9.23;2.38;;;;;;;;;;5053834;28;20107;-79
2022/01/09 01:12:00;;;;;;;8.20;2.10;;;;;;;;;;5053691;28;20410;-80
2022/01/09 01:14:28;;;;;;;8.02;2.10;;;;;;;;;;5053676;28;20029;-79
2022/01/09 01:16:56;;;;;;;9.82;2.38;;;;;;;;;;5053696;28;20098;-79
2022/01/09 01:19:23;;;;;;;7.88;2.00;;;;;;;;;;5035914;28;20032;-78
2022/01/09 01:21:51;;;;;;;5.38;1.98;;;;;;;;;;5052158;28;20441;-79
2022/01/09 01:24:20;;;;;;;9.23;2.47;;;;;;;;;;5053678;28;20025;-78
2022/01/09 01:26:47;;;;;;;10.30;2.75;;;;;;;;;;5052638;28;20029;-78
2022/01/09 01:29:15;;;;;;;6.00;1.85;;;;;;;;;;5052187;28;20029;-78
2022/01/09 01:31:42;;;;;;;8.32;2.20;;;;;;;;;;5052440;28;20044;-78
2022/01/09 01:34:12;;;;;;;7.15;2.50;;;;;;;;;;5053409;28;20040;-78
2022/01/09 01:36:42;;;;;;;8.07;2.40;;;;;;;;;;5053681;28;20021;-79
2022/01/09 01:39:09;;;;;;;10.23;2.70;;;;;;;;;;5052467;28;20040;-78
2022/01/09 01:41:36;;;;;;;9.07;2.95;;;;;;;;;;5052287;28;20029;-77
2022/01/09 01:44:04;;;;;;;10.73;2.97;;;;;;;;;;5052259;28;20025;-79
2022/01/09 01:46:31;;;;;;;10.43;2.80;;;;;;;;;;5052130;28;20029;-80
2022/01/09 01:48:58;;;;;;;9.10;3.28;;;;;;;;;;5053393;28;20057;-79
2022/01/09 01:51:26;;;;;;;8.85;3.38;;;;;;;;;;5052097;28;20033;-79
2022/01/09 01:53:55;;;;;;;9.57;3.90;;;;;;;;;;5053657;28;20032;-79
2022/01/09 01:56:23;;;;;;;8.80;3.20;;;;;;;;;;5053355;28;20017;-79
2022/01/09 01:58:51;;;;;;;11.75;4.43;;;;;;;;;;5053847;28;20485;-81
2022/01/09 02:01:19;;;;;;;13.43;4.97;;;;;;;;;;5052133;28;20075;-82
2022/01/09 02:03:46;;;;;;;10.07;3.90;;;;;;;;;;5051816;28;20128;-80
2022/01/09 02:06:17;;;;;;;13.02;4.10;;;;;;;;;;5053539;28;20025;-81
2022/01/09 02:08:44;;;;;;;8.13;3.90;;;;;;;;;;5052212;28;20460;-79
2022/01/09 02:11:12;;;;;;;10.40;4.00;;;;;;;;;;5057188;28;20389;-80
2022/01/09 02:13:41;;;;;;;9.02;3.30;;;;;;;;;;5059907;28;20025;-79
2022/01/09 02:16:16;;;;;;;8.93;3.40;;;;;;;;;;5060128;28;20020;-81
2022/01/09 02:18:44;;;;;;;9.27;3.63;;;;;;;;;;5058740;28;20505;-80
2022/01/09 02:21:12;;;;;;;5.95;3.22;;;;;;;;;;5058687;28;20028;-80
2022/01/09 02:23:41;;;;;;;11.00;3.88;;;;;;;;;;5060122;28;20032;-79
2022/01/09 02:26:09;;;;;;;7.78;3.88;;;;;;;;;;5059716;28;20028;-79
2022/01/09 02:28:36;;;;;;;9.70;3.83;;;;;;;;;;5059696;28;20025;-80
2022/01/09 02:31:03;;;;;;;7.45;3.35;;;;;;;;;;5058153;28;20040;-80
2022/01/09 02:33:30;;;;;;;7.80;3.50;;;;;;;;;;5058497;28;20036;-79
2022/01/09 02:35:58;;;;;;;12.63;4.50;;;;;;;;;;5058525;28;20466;-79
2022/01/09 02:38:25;;;;;;;11.00;3.95;;;;;;;;;;5058552;28;20029;-79
2022/01/09 02:40:54;;;;;;;9.85;4.10;;;;;;;;;;5059995;28;20033;-79
2022/01/09 02:43:21;;;;;;;8.95;4.35;;;;;;;;;;5059748;28;20367;-80
2022/01/09 02:45:56;;;;;;;11.18;4.63;;;;;;;;;;5058464;28;20029;-80
2022/01/09 02:48:24;;;;;;;10.40;5.63;;;;;;;;;;5058494;28;20021;-80
2022/01/09 02:51:01;;;;;;;7.93;4.43;;;;;;;;;;5059564;28;20100;-80
2022/01/09 02:53:33;;;;;;;8.80;4.43;;;;;;;;;;5059806;28;20074;-80
2022/01/09 02:56:00;;;;;;;11.90;5.05;;;;;;;;;;5058617;28;20473;-80
2022/01/09 02:58:27;;;;;;;9.07;4.47;;;;;;;;;;5059595;28;20482;-80
2022/01/09 03:00:54;;;;;;;13.75;4.82;;;;;;;;;;5058656;28;20044;-86
2022/01/09 03:03:22;;;;;;;11.07;4.28;;;;;;;;;;5058095;28;20049;-83
2022/01/09 03:05:49;;;;;;;11.38;4.88;;;;;;;;;;5058653;28;20116;-79
2022/01/09 03:08:16;;;;;;;11.10;4.20;;;;;;;;;;5058066;28;20060;-82
2022/01/09 03:10:43;;;;;;;9.57;3.78;;;;;;;;;;5058300;28;20048;-80
2022/01/09 03:13:10;;;;;;;13.25;4.53;;;;;;;;;;5058294;28;20405;-79
2022/01/09 03:15:38;;;;;;;11.52;4.35;;;;;;;;;;5059475;28;20021;-80
2022/01/09 03:18:05;;;;;;;8.80;3.45;;;;;;;;;;5058444;28;20024;-78
2022/01/09 03:20:32;;;;;;;7.75;3.88;;;;;;;;;;5059124;28;20032;-79
2022/01/09 03:23:01;;;;;;;9.27;3.90;;;;;;;;;;5054821;28;20029;-79
2022/01/09 03:25:29;;;;;;;9.70;4.30;;;;;;;;;;5054880;28;20029;-79
2022/01/09 03:27:59;;;;;;;9.32;3.53;;;;;;;;;;5055764;28;20470;-80
2022/01/09 03:30:26;;;;;;;;;;;;;;;;;;5056590;28;20025;-79
2022/01/09 03:32:55;;;;;;;10.75;3.25;;;;;;;;;;5054737;28;19927;-79
2022/01/09 03:35:24;;;;;;;8.18;3.47;;;;;;;;;;5054697;28;20025;-77
2022/01/09 03:37:51;;;;;;;6.53;2.50;;;;;;;;;;5055391;28;20062;-77
2022/01/09 03:40:25;;;;;;;9.98;3.67;;;;;;;;;;5055433;28;20073;-78
2022/01/09 03:42:57;;;;;;;8.55;3.08;;;;;;;;;;5055420;28;20463;-76
2022/01/09 03:45:26;;;;;;;6.22;3.20;;;;;;;;;;5055389;28;20502;-76
2022/01/09 03:47:54;;;;;;;11.90;3.53;;;;;;;;;;5037495;28;20036;-79
2022/01/09 03:50:23;;;;;;;7.50;3.10;;;;;;;;;;5053912;28;20426;-77
2022/01/09 03:52:52;;;;;;;8.88;3.33;;;;;;;;;;5037672;28;20029;-78
2022/01/09 03:55:20;;;;;;;9.23;3.38;;;;;;;;;;5055174;28;20017;-78
2022/01/09 03:57:48;;;;;;;8.98;3.55;;;;;;;;;;5055141;28;20450;-76
2022/01/09 04:00:17;;;;;;;9.70;3.55;;;;;;;;;;5055425;28;20025;-80
2022/01/09 04:02:45;;;;;;;8.05;3.70;;;;;;;;;;5054909;28;20025;-76
2022/01/09 04:05:12;;;;;;;10.73;4.03;;;;;;;;;;5054863;28;20108;-78
2022/01/09 04:07:39;;;;;;;8.18;3.30;;;;;;;;;;5054921;28;20398;-78
2022/01/09 04:10:10;;;;;;;12.43;4.15;;;;;;;;;;5053574;28;20029;-75
2022/01/09 04:12:47;;;;;;;11.70;3.42;;;;;;;;;;5053844;28;20108;-79
2022/01/09 04:15:15;;;;;;;8.25;3.47;;;;;;;;;;5054962;28;20386;-76
2022/01/09 04:17:53;;;;;;;9.15;3.42;;;;;;;;;;5053611;28;20032;-77
2022/01/09 04:20:24;;;;;;;8.13;3.25;;;;;;;;;;5054705;28;20071;-77
2022/01/09 04:22:52;;;;;;;10.85;3.80;;;;;;;;;;5054589;28;20031;-78
2022/01/09 04:25:19;;;;;;;7.53;2.67;;;;;;;;;;5053304;28;20049;-79
2022/01/09 04:27:48;;;;;;;8.50;3.20;;;;;;;;;;5054607;28;20427;-79
2022/01/09 04:30:15;;;;;;;8.20;3.08;;;;;;;;;;5053164;28;20074;-79
2022/01/09 04:32:42;;;;;;;9.07;3.53;;;;;;;;;;5054643;28;20023;-79
2022/01/09 04:35:10;;;;;;;10.02;3.25;;;;;;;;;;5051734;28;20374;-77
2022/01/09 04:37:39;;;;;;;8.55;3.92;;;;;;;;;;5054350;28;20021;-79
2022/01/09 04:40:08;;;;;;;7.82;2.60;;;;;;;;;;5054196;28;20025;-78
2022/01/09 04:42:45;;;;;;;10.03;2.73;;;;;;;;;;5052964;28;20086;-79
2022/01/09 04:45:27;;;;;;;8.85;2.30;;;;;;;;;;5053877;28;20116;-76
2022/01/09 04:47:55;;;;;;;6.68;2.20;;;;;;;;;;5052719;28;20021;-79
2022/01/09 04:50:25;;;;;;;7.07;2.40;;;;;;;;;;5054358;28;20335;-79
2022/01/09 04:52:58;;;;;;;7.45;2.50;;;;;;;;;;5052787;28;20017;-80
2022/01/09 04:55:26;;;;;;;7.57;2.10;;;;;;;;;;5053945;28;20021;-80
2022/01/09 04:57:54;;;;;;;7.53;1.83;;;;;;;;;;5054067;28;20517;-80
2022/01/09 05:00:21;;;;;;;8.68;2.35;;;;;;;;;;5052560;28;20489;-79
2022/01/09 05:02:48;;;;;;;6.82;2.30;;;;;;;;;;5052474;28;20021;-79
2022/01/09 05:05:15;;;;;;;6.88;2.10;;;;;;;;;;5052592;28;20028;-78
2022/01/09 05:07:43;;;;;;;5.97;2.00;;;;;;;;;;5052362;28;20040;-79
2022/01/09 05:10:10;;;;;;;6.18;1.92;;;;;;;;;;5052299;28;20059;-78
2022/01/09 05:12:38;;;;;;;7.45;1.88;;;;;;;;;;5053635;28;20021;-79
2022/01/09 05:15:06;;;;;;;6.30;1.90;;;;;;;;;;5053695;28;20055;-80
2022/01/09 05:17:33;;;;;;;7.32;1.90;;;;;;;;;;5053533;28;20028;-78
2022/01/09 05:20:01;;;;;;;7.30;1.88;;;;;;;;;;5053654;28;20021;-79
2022/01/09 05:22:28;;;;;;;6.30;1.95;;;;;;;;;;5052173;28;20074;-78
2022/01/09 05:24:58;;;;;;;5.95;2.10;;;;;;;;;;5051955;28;20020;-77
2022/01/09 05:27:26;;;;;;;8.10;2.50;;;;;;;;;;5053157;28;20492;-78
2022/01/09 05:29:53;;;;;;;7.18;2.15;;;;;;;;;;5051853;28;20025;-79
2022/01/09 05:32:20;;;;;;;5.63;2.00;;;;;;;;;;5051913;28;20437;-77
2022/01/09 05:34:48;;;;;;;8.55;1.92;;;;;;;;;;5053174;28;20020;-78
2022/01/09 05:37:15;;;;;;;5.05;1.95;;;;;;;;;;5051939;28;20108;-77
2022/01/09 05:39:42;;;;;;;8.25;2.00;;;;;;;;;;5053154;28;20033;-78
2022/01/09 05:42:11;;;;;;;8.18;2.05;;;;;;;;;;5053096;28;20020;-77
2022/01/09 05:44:38;;;;;;;8.70;1.98;;;;;;;;;;5051747;28;20026;-77
2022/01/09 05:47:05;;;;;;;8.20;1.80;;;;;;;;;;5051390;28;20452;-78
2022/01/09 05:49:33;;;;;;;7.00;2.10;;;;;;;;;;5053067;28;20082;-78
2022/01/09 05:52:00;;;;;;;6.78;2.20;;;;;;;;;;5052039;28;20030;-78
2022/01/09 05:54:27;;;;;;;6.63;2.13;;;;;;;;;;5052907;28;20524;-78
2022/01/09 05:56:54;;;;;;;5.40;1.85;;;;;;;;;;5052938;28;20378;-78
2022/01/09 05:59:21;;;;;;;6.85;1.95;;;;;;;;;;5051630;28;20029;-79
2022/01/09 06:01:48;;;;;;;7.55;1.85;;;;;;;;;;5052938;28;20108;-76
2022/01/09 06:04:18;;;;;;;10.63;2.13;;;;;;;;;;5052535;28;20390;-78
2022/01/09 06:06:46;;;;;;;7.18;1.90;;;;;;;;;;5052757;28;20045;-78
2022/01/09 06:09:13;;;;;;;5.68;2.00;;;;;;;;;;5052747;28;20390;-78
2022/01/09 06:11:42;;;;;;;6.32;1.90;;;;;;;;;;5052704;28;20036;-77
2022/01/09 06:14:09;;;;;;;6.45;1.48;;;;;;;;;;5052745;28;20024;-79
2022/01/09 06:16:36;;;;;;;5.35;1.85;;;;;;;;;;5051147;28;20017;-77
2022/01/09 06:19:03;;;;;;;6.97;1.83;;;;;;;;;;5052558;28;20021;-77
2022/01/09 06:21:30;;;;;;;7.30;1.90;;;;;;;;;;5052672;28;20543;-78
2022/01/09 06:23:58;;;;;;;5.15;2.15;;;;;;;;;;5052629;28;20047;-77
2022/01/09 06:26:25;;;;;;;4.80;1.70;;;;;;;;;;5051518;28;20390;-76
2022/01/09 06:28:52;;;;;;;5.97;1.83;;;;;;;;;;5051458;28;20029;-79
2022/01/09 06:31:19;;;;;;;5.95;1.88;;;;;;;;;;5051351;28;20049;-77
2022/01/09 06:33:46;;;;;;;5.43;1.85;;;;;;;;;;5052525;28;20036;-77
2022/01/09 06:36:14;;;;;;;8.77;2.22;;;;;;;;;;5051211;28;20478;-76
2022/01/09 06:38:42;;;;;;;6.78;1.95;;;;;;;;;;5052463;28;20025;-75
2022/01/09 06:41:09;;;;;;;7.68;1.80;;;;;;;;;;5052555;28;20028;-73
2022/01/09 06:43:36;;;;;;;8.88;2.22;;;;;;;;;;5051127;28;20501;-73
2022/01/09 06:46:03;;;;;;;5.95;1.90;;;;;;;;;;5052490;28;20025;-72
2022/01/09 06:48:30;;;;;;;6.88;2.20;;;;;;;;;;5052259;28;20028;-73
2022/01/09 06:50:58;;;;;;;6.63;1.88;;;;;;;;;;5051085;28;20056;-73
2022/01/09 06:53:25;;;;;;;6.60;1.88;;;;;;;;;;5052135;28;20428;-74
2022/01/09 06:55:52;;;;;;;10.45;1.83;;;;;;;;;;5052305;28;20101;-74
2022/01/09 06:58:21;;;;;;;7.55;2.25;;;;;;;;;;5053368;28;20033;-74
2022/01/09 07:00:49;;;;;;;5.97;1.73;;;;;;;;;;5054626;28;20051;-74
2022/01/09 07:03:16;;;;;;;5.63;1.95;;;;;;;;;;5054376;28;20049;-73
2022/01/09 07:05:43;;;;;;;6.55;1.55;;;;;;;;;;5054655;28;20028;-73
2022/01/09 07:08:10;;;;;;;7.05;1.67;;;;;;;;;;5054894;28;20501;-73
2022/01/09 07:10:37;;;;;;;4.90;1.65;;;;;;;;;;5055913;28;20056;-74
2022/01/09 07:13:05;;;;;;;9.27;1.95;;;;;;;;;;5055773;28;20070;-74
2022/01/09 07:15:32;;;;;;;11.63;2.50;;;;;;;;;;5055648;28;20021;-73
2022/01/09 07:18:00;;;;;;;7.80;2.10;;;;;;;;;;5055670;28;20028;-75
2022/01/09 07:20:27;;;;;;;9.48;2.10;;;;;;;;;;5055638;28;20025;-73
2022/01/09 07:22:54;;;;;;;7.88;1.52;;;;;;;;;;5054316;28;20028;-74
2022/01/09 07:25:21;;;;;;;7.32;2.10;;;;;;;;;;5055580;28;20017;-73
2022/01/09 07:27:48;;;;;;;8.27;2.15;;;;;;;;;;5054101;28;20025;-73
2022/01/09 07:30:16;;;;;;;7.18;1.80;;;;;;;;;;5054133;28;20033;-74
2022/01/09 07:32:43;;;;;;;9.70;2.30;;;;;;;;;;5055480;28;20033;-74
2022/01/09 07:35:10;;;;;;;7.80;2.00;;;;;;;;;;5053892;28;20029;-74
2022/01/09 07:37:37;;;;;;;8.38;2.25;;;;;;;;;;5054196;28;20397;-75
2022/01/09 07:40:05;;;;;;;6.10;1.90;;;;;;;;;;5053937;28;20064;-73
2022/01/09 07:42:32;;;;;;;9.27;2.47;;;;;;;;;;5055337;28;20031;-73
2022/01/09 07:45:00;;;;;;;8.75;2.53;;;;;;;;;;5055109;28;20021;-75
2022/01/09 07:47:27;;;;;;;5.28;1.90;;;;;;;;;;5053922;28;20029;-73
2022/01/09 07:49:54;;;;;;;5.43;2.10;;;;;;;;;;5053671;28;20112;-74
2022/01/09 07:52:22;;;;;;;8.90;2.25;;;;;;;;;;5055116;28;20029;-75
2022/01/09 07:54:49;;;;;;;8.45;2.20;;;;;;;;;;5053666;28;20421;-75
2022/01/09 07:57:17;;;;;;;10.20;2.28;;;;;;;;;;5054945;28;20067;-75
2022/01/09 07:59:44;;;;;;;9.65;2.70;;;;;;;;;;5053696;28;20036;-76
2022/01/09 08:02:11;;;;;;;11.02;3.67;;;;;;;;;;5053610;28;20082;-75
2022/01/09 08:04:38;;;;;;;7.18;2.17;;;;;;;;;;5053215;28;20386;-75
2022/01/09 08:07:05;;;;;;;13.38;2.67;;;;;;;;;;5054844;28;20025;-75
2022/01/09 08:09:33;;;;;;;8.38;2.38;;;;;;;;;;5054388;28;20504;-75
2022/01/09 08:12:00;;;;;;;5.28;2.15;;;;;;;;;;5053508;28;20021;-74
2022/01/09 08:14:27;;;;;;;5.82;2.17;;;;;;;;;;5054588;28;20013;-75
2022/01/09 08:16:55;;;;;;;9.90;2.58;;;;;;;;;;5053246;28;20474;-76
2022/01/09 08:19:22;;;;;;;8.63;2.50;;;;;;;;;;5053340;28;20032;-75
2022/01/09 08:21:49;;;;;;;10.48;2.60;;;;;;;;;;5053193;28;20052;-75
2022/01/09 08:24:16;;;;;;;10.63;3.03;;;;;;;;;;5054493;28;20032;-74
2022/01/09 08:26:43;;;;;;;8.30;2.38;;;;;;;;;;5053137;28;20035;-75
2022/01/09 08:29:10;;;;;;;12.48;2.95;;;;;;;;;;5054326;28;20028;-74
2022/01/09 08:31:38;;;;;;;10.85;2.47;;;;;;;;;;5053013;28;20025;-74
2022/01/09 08:34:05;;;;;;;11.45;2.95;;;;;;;;;;5054284;28;20052;-74
2022/01/09 08:36:33;;;;;;;6.57;2.40;;;;;;;;;;5054139;28;20041;-74
2022/01/09 08:39:00;;;;;;;7.82;2.60;;;;;;;;;;5052857;28;20033;-74
2022/01/09 08:41:27;;;;;;;10.57;3.15;;;;;;;;;;5052773;28;20020;-74
2022/01/09 08:43:54;;;;;;;8.88;2.47;;;;;;;;;;5052848;28;20029;-75
2022/01/09 08:46:21;;;;;;;9.55;2.60;;;;;;;;;;5052732;28;20029;-74
2022/01/09 08:48:49;;;;;;;9.65;2.58;;;;;;;;;;5053940;28;20056;-75
2022/01/09 08:51:19;;;;;;;8.35;2.65;;;;;;;;;;5054020;28;20024;-76
2022/01/09 08:53:50;;;;;;;7.35;2.33;;;;;;;;;;5053959;28;20483;-75
2022/01/09 08:56:21;;;;;;;10.90;2.95;;;;;;;;;;5053904;28;20110;-75
2022/01/09 08:58:48;;;;;;;8.70;2.97;;;;;;;;;;5053863;28;20029;-75
2022/01/09 09:01:16;;;;;;;8.07;2.78;;;;;;;;;;5053816;28;20021;-75
2022/01/09 09:03:44;;;;;;;10.40;3.70;;;;;;;;;;5052111;28;20044;-75
2022/01/09 09:06:12;;;;;;;9.45;3.58;;;;;;;;;;5053589;28;20099;-75
2022/01/09 09:08:40;;;;;;;11.85;3.20;;;;;;;;;;5053509;28;20028;-75
2022/01/09 09:11:08;;;;;;;7.45;2.95;;;;;;;;;;5053561;28;20048;-76
2022/01/09 09:13:35;;;;;;;6.22;2.88;;;;;;;;;;5053590;28;20028;-75
2022/01/09 09:16:03;;;;;;;7.00;2.90;;;;;;;;;;5052094;28;20031;-75
2022/01/09 09:18:30;;;;;;;8.88;3.47;;;;;;;;;;5052140;28;20025;-74
2022/01/09 09:20:58;;;;;;;10.80;4.15;;;;;;;;;;5051594;28;20028;-74
2022/01/09 09:23:25;;;;;;;12.38;4.50;;;;;;;;;;5053298;28;20552;-74
2022/01/09 09:25:52;;;;;;;12.80;4.57;;;;;;;;;;5053267;28;20017;-74
2022/01/09 09:28:20;;;;;;;10.68;4.90;;;;;;;;;;5053090;28;20025;-75
2022/01/09 09:30:47;;;;;;;12.05;4.60;;;;;;;;;;5053379;28;20044;-74
2022/01/09 09:33:14;;;;;;;12.70;5.20;;;;;;;;;;5051828;28;20059;-75
2022/01/09 09:35:41;;;;;;;9.93;4.28;;;;;;;;;;5052075;28;20028;-75
2022/01/09 09:38:08;;;;;;;10.60;3.85;;;;;;;;;;5053239;28;20381;-74
2022/01/09 09:40:36;;;;;;;11.02;5.53;;;;;;;;;;5051844;28;20094;-74
2022/01/09 09:43:03;;;;;;;10.52;4.90;;;;;;;;;;5053078;28;20430;-75
2022/01/09 09:45:30;;;;;;;11.70;5.28;;;;;;;;;;5053093;28;20025;-75
2022/01/09 09:48:00;;;;;;;14.18;5.65;;;;;;;;;;5052994;28;20032;-76
2022/01/09 09:50:28;;;;;;;11.73;4.95;;;;;;;;;;5053049;28;20044;-76
2022/01/09 09:52:55;;;;;;;10.55;5.07;;;;;;;;;;5053016;28;20021;-75
2022/01/09 09:55:23;;;;;;;12.05;4.80;;;;;;;;;;5053033;28;20480;-75
2022/01/09 09:57:50;;;;;;;10.32;4.97;;;;;;;;;;5051645;28;20051;-74
2022/01/09 10:00:19;;;;;;;12.70;4.78;;;;;;;;;;5052930;28;20017;-74
2022/01/09 10:02:50;;;;;;;9.38;4.95;;;;;;;;;;5051391;28;20021;-74
2022/01/09 10:05:22;;;;;;;12.57;5.38;;;;;;;;;;5052855;28;20025;-74
2022/01/09 10:07:50;;;;;;;11.30;5.40;;;;;;;;;;5052945;28;20025;-75
2022/01/09 10:10:18;;;;;;;9.77;4.97;;;;;;;;;;5035016;28;20378;-74
2022/01/09 10:12:48;;;;;;;11.85;5.20;;;;;;;;;;5052834;28;20385;-74
2022/01/09 10:15:17;;;;;;;11.13;5.95;;;;;;;;;;5051363;28;20486;-74
2022/01/09 10:17:46;;;;;;;12.23;5.00;;;;;;;;;;5052764;28;20099;-74
2022/01/09 10:20:24;;;;;;;11.57;5.75;;;;;;;;;;5051444;28;20505;-74
2022/01/09 10:22:53;;;;;;;11.95;5.97;;;;;;;;;;5051503;28;20021;-75
2022/01/09 10:25:32;;;;;;;10.75;5.28;;;;;;;;;;5035053;28;20557;-75
2022/01/09 10:28:21;;;;;;;13.43;6.18;;;;;;;;;;5052606;28;20029;-74
2022/01/09 10:30:51;;;;;;;12.43;6.35;;;;;;;;;;5052711;28;20018;-76
2022/01/09 10:33:20;;;;;;;12.02;5.85;;;;;;;;;;5055437;28;20032;-74
2022/01/09 10:35:49;;;;;;;10.52;5.63;;;;;;;;;;5055345;28;20552;-74
2022/01/09 10:38:19;;;;;;;12.05;5.95;;;;;;;;;;5055289;28;20021;-74
2022/01/09 10:40:46;;;;;;;;;;;;;;;;;;5056963;28;20474;-74
2022/01/09 10:43:21;;;;;;;12.77;5.90;;;;;;;;;;5055177;28;19905;-74
2022/01/09 10:45:56;;;;;;;10.90;5.93;;;;;;;;;;5056505;28;20452;-75
2022/01/09 10:48:24;;;;;;;12.40;5.57;;;;;;;;;;5056289;28;20186;-74
2022/01/09 10:50:52;;;;;;;13.02;5.22;;;;;;;;;;5056330;28;20021;-75
2022/01/09 10:53:21;;;;;;;13.02;5.05;;;;;;;;;;5056236;28;20100;-75
2022/01/09 10:56:00;;;;;;;12.65;5.35;;;;;;;;;;5055021;28;20462;-74
2022/01/09 10:58:28;;;;;;;11.38;4.63;;;;;;;;;;5056174;28;20028;-75
2022/01/09 11:01:07;;;;;;;10.40;4.53;;;;;;;;;;5056173;28;20021;-74
2022/01/09 11:03:34;;;;;;;8.77;4.63;;;;;;;;;;5054545;28;20164;-74
2022/01/09 11:06:02;;;;;;;15.23;5.00;;;;;;;;;;5055998;28;20552;-74
2022/01/09 11:08:30;;;;;;;11.27;4.55;;;;;;;;;;5055862;28;20028;-74
2022/01/09 11:10:59;;;;;;;11.68;4.65;;;;;;;;;;5054649;28;20071;-74
2022/01/09 11:13:26;;;;;;;10.95;5.05;;;;;;;;;;5054658;28;20025;-75
2022/01/09 11:18:40;;;;;;;11.15;4.50;;;;;;;;;;5056095;28;20123;-74
2022/01/09 11:21:08;;;;;;;10.10;4.35;;;;;;;;;;5055726;28;20104;-74
2022/01/09 11:23:58;;;;;;;11.40;4.97;;;;;;;;;;5055707;28;20028;-74
2022/01/09 11:26:31;;;;;;;14.40;4.88;;;;;;;;;;5055181;28;20112;-75
2022/01/09 11:28:58;;;;;;;11.07;4.72;;;;;;;;;;5055577;28;20025;-74
2022/01/09 11:31:46;;;;;;;11.27;4.13;;;;;;;;;;5054283;28;20027;-74
2022/01/09 11:34:19;;;;;;;12.25;4.68;;;;;;;;;;5054333;28;20025;-74
2022/01/09 11:37:02;;;;;;;19.00;5.35;;;;;;;;;;5054214;28;20027;-75
2022/01/09 11:39:36;;;;;;;12.77;4.57;;;;;;;;;;5055622;28;20021;-74
2022/01/09 11:42:10;;;;;;;16.13;4.93;;;;;;;;;;5055519;28;20563;-73
2022/01/09 11:44:57;;;;;;;14.10;5.25;;;;;;;;;;5054644;28;20059;-73
2022/01/09 11:47:25;;;;;;;16.08;5.00;;;;;;;;;;5053918;28;20021;-74
2022/01/09 11:49:52;;;;;;;12.45;4.25;;;;;;;;;;5053895;28;20025;-74
2022/01/09 11:52:20;;;;;;;10.45;4.80;;;;;;;;;;5053810;28;20104;-74
2022/01/09 11:54:51;;;;;;;8.27;4.80;;;;;;;;;;5053800;28;20029;-74
2022/01/09 11:57:37;;;;;;;11.98;5.65;;;;;;;;;;5053769;28;20020;-74
2022/01/09 12:00:05;;;;;;;13.80;5.13;;;;;;;;;;5055088;28;20095;-75
2022/01/09 12:02:33;;;;;;;14.15;4.43;;;;;;;;;;5053550;28;20021;-75
2022/01/09 12:05:03;;;;;;;11.02;4.45;;;;;;;;;;5054835;28;20033;-74
2022/01/09 12:07:36;;;;;;;11.40;4.53;;;;;;;;;;5053602;28;20074;-74
2022/01/09 12:10:18;;;;;;;13.75;4.93;;;;;;;;;;5054810;28;20029;-74
2022/01/09 12:12:46;;;;;;;10.77;5.05;;;;;;;;;;5054879;28;20497;-74
2022/01/09 12:15:14;;;;;;;10.30;5.00;;;;;;;;;;5054852;28;20526;-75
2022/01/09 12:17:43;;;;;;;12.32;5.40;;;;;;;;;;5053389;28;20021;-74
2022/01/09 12:20:10;;;;;;;12.55;5.05;;;;;;;;;;5054691;28;20021;-74
2022/01/09 12:22:40;;;;;;;13.10;4.88;;;;;;;;;;5053374;28;20064;-74
2022/01/09 12:25:07;;;;;;;;;;;;;;;;;;5055049;28;20073;-74
2022/01/09 12:27:38;;;;;;;17.63;5.95;;;;;;;;;;5053212;28;20369;-74
2022/01/09 12:30:06;;;;;;;11.52;5.28;;;;;;;;;;5054534;28;20052;-73
2022/01/09 12:32:40;;;;;;;11.32;4.85;;;;;;;;;;5054424;28;20029;-74
2022/01/09 12:35:22;;;;;;;9.65;4.35;;;;;;;;;;5053087;28;20029;-74
2022/01/09 12:37:53;;;;;;;14.75;4.30;;;;;;;;;;5054357;28;20052;-74
2022/01/09 12:40:24;;;;;;;11.88;4.65;;;;;;;;;;5052930;28;20081;-74
2022/01/09 12:42:55;;;;;;;10.00;4.20;;;;;;;;;;5052817;28;20020;-74
2022/01/09 12:45:23;;;;;;;15.43;4.80;;;;;;;;;;5054230;28;20110;-74
2022/01/09 12:47:50;;;;;;;8.85;4.03;;;;;;;;;;5054108;28;20040;-74
2022/01/09 12:50:17;;;;;;;16.42;4.63;;;;;;;;;;5054074;28;20381;-73
2022/01/09 12:52:44;;;;;;;15.18;5.13;;;;;;;;;;5052779;28;20024;-75
2022/01/09 12:55:15;;;;;;;9.88;4.05;;;;;;;;;;5053098;28;20074;-74
2022/01/09 12:57:51;;;;;;;11.75;4.10;;;;;;;;;;5052721;28;20025;-74
2022/01/09 13:00:25;;;;;;;12.65;4.65;;;;;;;;;;5053915;28;20083;-74
2022/01/09 13:02:53;;;;;;;16.30;4.72;;;;;;;;;;5052436;28;20079;-74
2022/01/09 13:05:29;;;;;;;12.73;4.40;;;;;;;;;;5052474;28;20458;-74
2022/01/09 13:07:57;;;;;;;13.85;4.60;;;;;;;;;;5052506;28;20036;-74
2022/01/09 13:10:35;;;;;;;13.65;4.93;;;;;;;;;;5052309;28;20091;-75
2022/01/09 13:13:03;;;;;;;13.00;4.90;;;;;;;;;;5053646;28;20096;-74
2022/01/09 13:15:40;;;;;;;10.50;4.40;;;;;;;;;;5053636;28;20432;-74
2022/01/09 13:18:07;;;;;;;14.90;4.68;;;;;;;;;;5053696;28;20508;-74
2022/01/09 13:20:35;;;;;;;16.40;4.47;;;;;;;;;;5053639;28;20021;-74
2022/01/09 13:23:06;;;;;;;10.50;4.25;;;;;;;;;;5052194;28;20024;-74
2022/01/09 13:25:43;;;;;;;13.90;4.47;;;;;;;;;;5053451;28;20071;-73
2022/01/09 13:28:20;;;;;;;10.13;4.25;;;;;;;;;;5053346;28;20017;-74
2022/01/09 13:30:48;;;;;;;12.77;4.47;;;;;;;;;;5051984;28;20017;-73
2022/01/09 13:33:16;;;;;;;10.98;3.83;;;;;;;;;;5052094;28;20021;-74
2022/01/09 13:35:43;;;;;;;10.57;3.65;;;;;;;;;;5051990;28;20500;-75
2022/01/09 13:38:10;;;;;;;9.82;3.80;;;;;;;;;;5053344;28;20017;-74
2022/01/09 13:40:37;;;;;;;11.57;3.80;;;;;;;;;;5051865;28;20028;-74
2022/01/09 13:43:05;;;;;;;8.93;3.85;;;;;;;;;;5051918;28;20058;-73
2022/01/09 13:45:35;;;;;;;13.55;4.30;;;;;;;;;;5053231;28;20469;-73
2022/01/09 13:48:05;;;;;;;12.80;4.25;;;;;;;;;;5053057;28;20021;-73
2022/01/09 13:50:35;;;;;;;12.18;4.18;;;;;;;;;;5051833;28;20021;-73
2022/01/09 13:53:15;;;;;;;11.35;4.07;;;;;;;;;;5051703;28;20031;-73
2022/01/09 13:55:42;;;;;;;8.23;3.97;;;;;;;;;;5051817;28;20535;-73
2022/01/09 13:58:15;;;;;;;10.48;4.10;;;;;;;;;;5051620;28;20262;-73
2022/01/09 14:00:44;;;;;;;13.57;4.10;;;;;;;;;;5051623;28;20452;-73
2022/01/09 14:03:11;;;;;;;11.95;4.95;;;;;;;;;;5051381;28;20045;-74
2022/01/09 14:05:39;;;;;;;9.98;4.43;;;;;;;;;;5052715;28;20128;-74
2022/01/09 14:08:06;;;;;;;16.35;4.45;;;;;;;;;;5052564;28;20028;-74
2022/01/09 14:10:37;;;;;;;10.85;3.75;;;;;;;;;;5052905;28;20484;-74
2022/01/09 14:13:30;;;;;;;8.38;3.88;;;;;;;;;;5051573;28;20428;-74
2022/01/09 14:16:11;;;;;;;10.80;4.00;;;;;;;;;;5052473;28;20449;-74
2022/01/09 14:18:39;;;;;;;10.68;4.22;;;;;;;;;;5052737;28;20070;-74
2022/01/09 14:21:08;;;;;;;8.25;3.53;;;;;;;;;;5052719;28;20025;-74
2022/01/09 14:23:37;;;;;;;10.75;3.35;;;;;;;;;;5052746;28;20432;-74
2022/01/09 14:26:14;;;;;;;11.90;3.78;;;;;;;;;;5052758;28;20053;-75
2022/01/09 14:28:43;;;;;;;9.43;3.42;;;;;;;;;;5052539;28;20032;-75
2022/01/09 14:31:13;;;;;;;10.93;4.30;;;;;;;;;;5052711;28;20028;-72
2022/01/09 14:33:42;;;;;;;10.82;3.95;;;;;;;;;;5051220;28;20029;-73
2022/01/09 14:36:16;;;;;;;14.75;4.75;;;;;;;;;;5051329;28;20037;-73
2022/01/09 14:38:50;;;;;;;14.88;4.13;;;;;;;;;;5051159;28;20054;-73
2022/01/09 14:41:17;;;;;;;10.20;3.80;;;;;;;;;;5052529;28;20029;-74
2022/01/09 14:43:44;;;;;;;12.00;4.38;;;;;;;;;;5052636;28;20021;-74
2022/01/09 14:46:12;;;;;;;11.48;4.15;;;;;;;;;;5052528;28;20390;-74
2022/01/09 14:48:40;;;;;;;17.75;4.88;;;;;;;;;;5051039;28;20563;-74
2022/01/09 14:51:12;;;;;;;11.57;4.32;;;;;;;;;;5051263;28;20029;-74